Main page
METAR-TAF:

METAR-TAF

Airports :

Reus Airport

Reus, Spain

latitude: 41-09N, longitude: 001-10E, elevation: 71 m

Current weather observation

The report was made 20 minutes ago, at 23:00 UTC
Wind 3 kt from the North
Temperature 23°C
Humidity 89%
Pressure 1017 hPa
Visibility 10 km or more

METAR: LERS 052300Z AUTO 36003KT 9999 ////// 23/21 Q1017

Time: 01:20 (23:20 UTC)

Forecast

The report was made 3 hours and 20 minutes ago, at 20:00 UTC
Forecast valid from 05 at 21 UTC to 06 at 21 UTC
Wind 4 kt from variable directions
Visibility 10 km or more
Few clouds at a height of 3000 ft
Temporary
from 06 at 06 UTC to 06 at 12 UTC
Wind 13 kt from the West/Northwest
Becoming
from 06 at 11 UTC to 06 at 13 UTC
Wind 10 kt from the Southwest
Becoming
from 06 at 18 UTC to 06 at 20 UTC
Wind 4 kt from variable directions

TAF: LERS 052000Z 0521/0621 VRB04KT 9999 FEW030 TX36/0613Z TN20/0605Z TEMPO 0606/0612 30013KT BECMG 0611/0613 22010KT BECMG 0618/0620 VRB04KT

Weather observations and forecasts of more than 4000 airports (METAR and TAF reports).

The available stations are represented by yellow and red dots on the map.

Hover mouse over dot to see the name of the station.

Then click to see weather observations and forecasts.

To change the map : click on the green buttons with a black cross to zoom in, on the green button with a dash to zoom out, or on the green arrows for adjacent maps.


METAR-TAF: